createdAt,value
2018-02-15T00:01:34.481Z,10.73
2018-02-15T00:04:02.973Z,10.40
2018-02-15T00:06:31.473Z,10.40
2018-02-15T00:08:59.949Z,11.50
2018-02-15T00:11:28.457Z,10.33
2018-02-15T00:13:56.950Z,10.87
2018-02-15T00:16:25.393Z,11.50
2018-02-15T00:18:53.929Z,11.10
2018-02-15T00:21:22.408Z,10.33
2018-02-15T00:23:50.894Z,9.50
2018-02-15T00:26:19.382Z,10.90
2018-02-15T00:28:47.900Z,10.27
2018-02-15T00:31:16.426Z,11.20
2018-02-15T00:33:44.921Z,9.70
2018-02-15T00:36:13.383Z,10.27
2018-02-15T00:38:41.912Z,10.00
2018-02-15T00:41:10.454Z,9.83
2018-02-15T00:43:38.952Z,9.47
2018-02-15T00:46:07.447Z,10.87
2018-02-15T00:48:35.881Z,10.47
2018-02-15T00:51:04.371Z,9.83
2018-02-15T00:53:32.826Z,10.77
2018-02-15T00:56:01.390Z,10.77
2018-02-15T00:58:29.885Z,10.73
2018-02-15T01:00:58.373Z,10.57
2018-02-15T01:03:26.821Z,8.73
2018-02-15T01:05:55.314Z,9.40
2018-02-15T01:08:23.806Z,9.80
2018-02-15T01:10:52.271Z,10.67
2018-02-15T01:13:20.789Z,10.83
2018-02-15T01:15:49.241Z,10.50
2018-02-15T01:18:17.730Z,11.03
2018-02-15T01:20:46.223Z,11.00
2018-02-15T01:23:14.730Z,10.50
2018-02-15T01:25:43.194Z,11.63
2018-02-15T01:28:11.655Z,11.53
2018-02-15T01:30:40.159Z,11.60
2018-02-15T01:33:08.638Z,11.63
2018-02-15T01:35:37.093Z,13.90
2018-02-15T01:38:05.589Z,12.83
2018-02-15T01:40:34.049Z,12.37
2018-02-15T01:43:02.571Z,12.20
2018-02-15T01:45:31.034Z,11.60
2018-02-15T01:47:59.508Z,11.10
2018-02-15T01:50:28.042Z,12.53
2018-02-15T01:52:57.197Z,11.47
2018-02-15T01:55:25.683Z,11.83
2018-02-15T01:57:54.174Z,12.20
2018-02-15T02:00:22.665Z,11.83
2018-02-15T02:02:51.202Z,12.20
2018-02-15T02:05:19.725Z,11.40
2018-02-15T02:07:48.173Z,12.20
2018-02-15T02:10:16.634Z,11.40
2018-02-15T02:12:45.124Z,12.10
2018-02-15T02:15:13.594Z,11.90
2018-02-15T02:17:42.126Z,11.37
2018-02-15T02:20:10.647Z,11.60
2018-02-15T02:22:39.247Z,11.60
2018-02-15T02:25:07.701Z,11.53
2018-02-15T02:27:36.158Z,11.37
2018-02-15T02:30:04.651Z,10.47
2018-02-15T02:32:33.149Z,11.60
2018-02-15T02:35:01.654Z,11.53
2018-02-15T02:37:30.102Z,9.83
2018-02-15T02:39:58.567Z,10.07
2018-02-15T02:42:27.063Z,10.33
2018-02-15T02:44:55.609Z,10.80
2018-02-15T02:47:24.106Z,11.13
2018-02-15T02:49:52.613Z,9.47
2018-02-15T02:52:21.104Z,10.67
2018-02-15T02:54:49.597Z,11.13
2018-02-15T02:57:18.090Z,10.57
2018-02-15T02:59:46.582Z,11.33
2018-02-15T03:02:15.148Z,10.47
2018-02-15T03:04:43.638Z,11.70
2018-02-15T03:07:12.098Z,14.90
2018-02-15T03:09:40.589Z,13.77
2018-02-15T03:12:09.049Z,12.10
2018-02-15T03:14:37.562Z,12.80
2018-02-15T03:17:06.040Z,14.30
2018-02-15T03:19:34.509Z,14.57
2018-02-15T03:22:03.009Z,11.50
2018-02-15T03:24:31.539Z,11.67
2018-02-15T03:26:59.990Z,12.67
2018-02-15T03:29:28.462Z,10.27
2018-02-15T03:31:56.959Z,11.03
2018-02-15T03:34:25.478Z,10.93
2018-02-15T03:36:53.947Z,14.90
2018-02-15T03:39:22.429Z,10.63
2018-02-15T03:41:50.922Z,11.00
2018-02-15T03:44:19.381Z,11.10
2018-02-15T03:46:47.859Z,10.80
2018-02-15T03:49:16.365Z,11.63
2018-02-15T03:51:44.865Z,14.03
2018-02-15T03:54:13.326Z,11.50
2018-02-15T03:56:41.825Z,12.07
2018-02-15T03:59:10.333Z,11.63
2018-02-15T04:01:38.829Z,11.37
2018-02-15T04:04:07.350Z,10.27
2018-02-15T04:06:35.845Z,12.40
2018-02-15T04:09:04.338Z,12.70
2018-02-15T04:11:32.873Z,10.97
2018-02-15T04:14:01.380Z,14.30
2018-02-15T04:16:29.889Z,11.30
2018-02-15T04:18:58.353Z,11.33
2018-02-15T04:21:26.845Z,11.33
2018-02-15T04:23:55.329Z,11.43
2018-02-15T04:26:23.819Z,11.77
2018-02-15T04:28:52.309Z,12.37
2018-02-15T04:31:20.774Z,11.20
2018-02-15T04:33:49.309Z,11.63
2018-02-15T04:36:17.769Z,12.50
2018-02-15T04:38:46.268Z,12.53
2018-02-15T04:41:14.717Z,12.83
2018-02-15T04:43:43.224Z,12.40
2018-02-15T04:46:11.679Z,11.63
2018-02-15T04:48:40.178Z,11.63
2018-02-15T04:51:08.682Z,11.57
2018-02-15T04:53:37.174Z,12.37
2018-02-15T04:56:05.643Z,12.00
2018-02-15T04:58:34.137Z,11.63
2018-02-15T05:01:02.596Z,11.17
2018-02-15T05:03:31.090Z,11.20
2018-02-15T05:05:59.558Z,11.83
2018-02-15T05:08:28.070Z,12.07
2018-02-15T05:10:56.542Z,12.20
2018-02-15T05:13:25.038Z,12.37
2018-02-15T05:15:53.543Z,10.90
2018-02-15T05:18:21.992Z,12.57
2018-02-15T05:20:50.493Z,11.40
2018-02-15T05:23:18.946Z,10.60
2018-02-15T05:25:47.437Z,10.63
2018-02-15T05:28:15.916Z,11.73
2018-02-15T05:30:44.399Z,15.83
2018-02-15T05:33:12.901Z,12.67
2018-02-15T05:35:41.405Z,17.47
2018-02-15T05:38:09.917Z,14.17
2018-02-15T05:40:38.393Z,13.60
2018-02-15T05:43:06.924Z,14.57
2018-02-15T05:45:35.421Z,12.10
2018-02-15T05:48:03.916Z,16.30
2018-02-15T05:50:32.416Z,12.47
2018-02-15T05:53:00.873Z,12.07
2018-02-15T05:55:29.385Z,13.37
2018-02-15T05:57:57.842Z,10.63
2018-02-15T06:00:26.365Z,14.20
2018-02-15T06:02:54.839Z,14.17
2018-02-15T06:05:23.354Z,12.43
2018-02-15T06:07:51.813Z,11.67
2018-02-15T06:10:20.281Z,11.93
2018-02-15T06:12:48.785Z,15.40
2018-02-15T06:15:17.296Z,14.27
2018-02-15T06:17:45.819Z,16.03
2018-02-15T06:20:14.458Z,12.70
2018-02-15T06:22:42.976Z,12.23
2018-02-15T06:25:11.463Z,18.53
2018-02-15T06:27:41.057Z,13.27
2018-02-15T06:30:09.557Z,12.13
2018-02-15T06:32:38.022Z,12.43
2018-02-15T06:35:06.533Z,10.80
2018-02-15T06:37:34.998Z,13.73
2018-02-15T06:40:03.492Z,12.87
2018-02-15T06:42:32.006Z,13.83
2018-02-15T06:45:00.474Z,13.30
2018-02-15T06:47:28.995Z,12.47
2018-02-15T06:49:57.453Z,13.23
2018-02-15T06:52:25.984Z,11.87
2018-02-15T06:54:54.458Z,12.37
2018-02-15T06:57:22.964Z,11.60
2018-02-15T06:59:51.469Z,11.30
2018-02-15T07:02:19.946Z,11.00
2018-02-15T07:04:48.490Z,12.27
2018-02-15T07:07:17.003Z,10.90
2018-02-15T07:09:45.501Z,10.80
2018-02-15T07:12:14.010Z,11.07
2018-02-15T07:14:42.473Z,11.70
2018-02-15T07:17:10.961Z,12.40
2018-02-15T07:19:39.469Z,12.70
2018-02-15T07:22:07.949Z,11.03
2018-02-15T07:24:36.447Z,11.40
2018-02-15T07:27:04.938Z,12.20
2018-02-15T07:29:33.413Z,11.13
2018-02-15T07:32:01.898Z,10.83
2018-02-15T07:34:30.385Z,13.90
2018-02-15T07:36:58.846Z,10.53
2018-02-15T07:39:27.412Z,12.00
2018-02-15T07:41:55.923Z,10.87
2018-02-15T07:44:24.406Z,10.87
2018-02-15T07:46:52.927Z,16.17
2018-02-15T07:49:21.409Z,14.07
2018-02-15T07:51:49.905Z,12.33
2018-02-15T07:54:18.434Z,14.00
2018-02-15T07:56:46.986Z,13.30
2018-02-15T07:59:15.465Z,11.23
2018-02-15T08:01:43.962Z,10.90
2018-02-15T08:04:12.465Z,12.20
2018-02-15T08:06:41.824Z,10.67
2018-02-15T08:09:10.321Z,12.23
2018-02-15T08:11:38.773Z,10.83
2018-02-15T08:14:07.282Z,11.30
2018-02-15T08:16:35.761Z,16.97
2018-02-15T08:19:04.219Z,11.67
2018-02-15T08:21:32.706Z,10.77
2018-02-15T08:24:01.204Z,14.43
2018-02-15T08:26:29.669Z,30.73
2018-02-15T08:28:58.174Z,10.93
2018-02-15T08:31:26.634Z,12.40
2018-02-15T08:33:55.098Z,16.10
2018-02-15T08:36:23.621Z,12.17
2018-02-15T08:38:52.078Z,9.67
2018-02-15T08:41:20.588Z,12.13
2018-02-15T08:43:49.089Z,13.57
2018-02-15T08:46:17.576Z,12.53
2018-02-15T08:48:46.037Z,10.80
2018-02-15T08:51:14.541Z,11.63
2018-02-15T08:53:43.000Z,12.63
2018-02-15T08:56:11.489Z,11.63
2018-02-15T08:58:39.963Z,13.67
2018-02-15T09:01:08.465Z,12.77
2018-02-15T09:03:36.997Z,14.07
2018-02-15T09:06:05.465Z,14.67
2018-02-15T09:08:34.046Z,12.70
2018-02-15T09:11:02.536Z,12.97
2018-02-15T09:13:31.038Z,11.53
2018-02-15T09:15:59.538Z,13.10
2018-02-15T09:18:28.023Z,13.33
2018-02-15T09:20:56.526Z,17.73
2018-02-15T09:23:24.996Z,12.97
2018-02-15T09:25:53.513Z,11.50
2018-02-15T09:28:21.969Z,13.07
2018-02-15T09:30:50.468Z,14.13
2018-02-15T09:33:18.945Z,12.00
2018-02-15T09:35:47.446Z,13.97
2018-02-15T09:38:15.905Z,16.83
2018-02-15T09:40:44.425Z,14.60
2018-02-15T09:43:12.889Z,11.73
2018-02-15T09:45:41.374Z,14.07
2018-02-15T09:48:09.860Z,23.87
2018-02-15T09:50:38.323Z,13.27
2018-02-15T09:53:06.825Z,14.67
2018-02-15T09:55:35.373Z,13.00
2018-02-15T09:58:03.913Z,14.17
2018-02-15T10:00:32.473Z,19.63
2018-02-15T10:03:00.930Z,14.30
2018-02-15T10:05:29.760Z,12.40
2018-02-15T10:07:58.220Z,17.03
2018-02-15T10:10:26.720Z,13.80
2018-02-15T10:12:55.217Z,12.23
2018-02-15T10:15:23.658Z,12.80
2018-02-15T10:17:52.154Z,17.87
2018-02-15T10:20:20.671Z,14.43
2018-02-15T10:22:49.235Z,13.20
2018-02-15T10:25:17.710Z,12.27
2018-02-15T10:27:46.249Z,14.00
2018-02-15T10:30:14.714Z,13.10
2018-02-15T10:32:43.262Z,12.43
2018-02-15T10:35:11.722Z,19.87
2018-02-15T10:37:40.253Z,12.90
2018-02-15T10:40:08.723Z,15.40
2018-02-15T10:42:37.194Z,11.57
2018-02-15T10:45:05.708Z,18.90
2018-02-15T10:47:34.185Z,15.40
2018-02-15T10:50:02.725Z,11.63
2018-02-15T10:52:31.230Z,12.60
2018-02-15T10:54:59.697Z,12.20
2018-02-15T10:57:28.214Z,12.63
2018-02-15T10:59:56.716Z,12.53
2018-02-15T11:02:25.215Z,11.23
2018-02-15T11:04:59.215Z,12.37
2018-02-15T11:07:27.726Z,12.73
2018-02-15T11:09:56.225Z,13.50
2018-02-15T11:12:24.734Z,14.70
2018-02-15T11:14:53.241Z,11.83
2018-02-15T11:17:21.750Z,16.30
2018-02-15T11:19:50.214Z,17.33
2018-02-15T11:22:18.718Z,15.60
2018-02-15T11:24:47.227Z,13.30
2018-02-15T11:27:15.738Z,13.33
2018-02-15T11:29:44.289Z,14.93
2018-02-15T11:32:12.807Z,14.30
2018-02-15T11:34:41.365Z,12.67
2018-02-15T11:37:09.838Z,14.27
2018-02-15T11:39:38.363Z,11.43
2018-02-15T11:42:06.830Z,9.60
2018-02-15T11:44:35.317Z,10.43
2018-02-15T11:47:03.779Z,11.43
2018-02-15T11:49:32.274Z,10.70
2018-02-15T11:52:00.714Z,9.90
2018-02-15T11:54:29.205Z,10.50
2018-02-15T11:56:57.658Z,11.00
2018-02-15T11:59:26.209Z,10.20
2018-02-15T12:01:54.712Z,17.40
2018-02-15T12:04:23.192Z,10.73
2018-02-15T12:06:51.728Z,14.97
2018-02-15T12:09:20.203Z,12.33
2018-02-15T12:11:48.739Z,22.43
2018-02-15T12:14:17.262Z,12.93
2018-02-15T12:16:45.735Z,17.00
2018-02-15T12:19:14.246Z,21.00
2018-02-15T12:21:42.765Z,11.57
2018-02-15T12:24:11.325Z,9.80
2018-02-15T12:26:39.826Z,11.67
2018-02-15T12:29:08.312Z,12.50
2018-02-15T12:31:36.813Z,10.47
2018-02-15T12:34:05.298Z,16.70
2018-02-15T12:36:33.801Z,11.83
2018-02-15T12:39:02.339Z,10.90
2018-02-15T12:41:30.849Z,11.33
2018-02-15T12:43:59.404Z,14.73
2018-02-15T12:46:27.875Z,12.27
2018-02-15T12:48:56.331Z,10.60
2018-02-15T12:51:24.853Z,11.07
2018-02-15T12:53:53.313Z,23.40
2018-02-15T12:56:21.815Z,11.63
2018-02-15T12:58:50.277Z,11.40
2018-02-15T13:01:18.753Z,10.57
2018-02-15T13:03:47.274Z,11.03
2018-02-15T13:06:15.865Z,11.20
2018-02-15T13:08:44.379Z,11.00
2018-02-15T13:11:12.853Z,11.63
2018-02-15T13:13:41.382Z,10.47
2018-02-15T13:16:21.462Z,12.93
2018-02-15T13:21:50.909Z,16.57
2018-02-15T13:24:19.456Z,15.23
2018-02-15T13:26:48.035Z,11.67
2018-02-15T13:29:16.717Z,11.43
2018-02-15T13:31:45.193Z,12.17
2018-02-15T13:34:13.793Z,11.97
2018-02-15T13:36:42.284Z,13.53
2018-02-15T13:39:10.849Z,14.57
2018-02-15T13:41:39.435Z,12.20
2018-02-15T13:44:08.040Z,13.00
2018-02-15T13:46:36.662Z,18.50
2018-02-15T13:49:05.174Z,13.70
2018-02-15T13:51:33.647Z,12.43
2018-02-15T13:54:02.174Z,24.63
2018-02-15T13:56:30.645Z,18.13
2018-02-15T13:58:59.260Z,15.90
2018-02-15T14:01:27.743Z,15.73
2018-02-15T14:03:56.240Z,15.13
2018-02-15T14:06:24.725Z,16.07
2018-02-15T14:08:53.230Z,13.27
2018-02-15T14:11:21.750Z,17.40
2018-02-15T14:13:50.258Z,14.53
2018-02-15T14:16:18.734Z,12.30
2018-02-15T14:18:47.258Z,20.23
2018-02-15T14:21:15.729Z,13.70
2018-02-15T14:23:44.195Z,12.23
2018-02-15T14:26:12.685Z,11.67
2018-02-15T14:28:41.178Z,22.97
2018-02-15T14:31:09.653Z,14.53
2018-02-15T14:33:38.157Z,10.87
2018-02-15T14:36:06.668Z,14.13
2018-02-15T14:38:35.186Z,10.83
2018-02-15T14:41:03.709Z,22.67
2018-02-15T14:43:32.171Z,13.93
2018-02-15T14:46:00.682Z,14.87
2018-02-15T14:48:29.216Z,20.57
2018-02-15T14:50:57.739Z,12.80
2018-02-15T14:53:26.250Z,26.43
2018-02-15T14:55:54.754Z,21.73
2018-02-15T14:58:23.261Z,27.37
2018-02-15T15:00:51.731Z,19.30
2018-02-15T15:03:20.229Z,18.30
2018-02-15T15:05:48.689Z,18.07
2018-02-15T15:08:17.198Z,19.50
2018-02-15T15:10:45.735Z,18.67
2018-02-15T15:13:14.206Z,19.53
2018-02-15T15:15:42.724Z,13.03
2018-02-15T15:18:11.210Z,16.10
2018-02-15T15:20:39.739Z,12.80
2018-02-15T15:23:08.218Z,22.23
2018-02-15T15:25:36.730Z,14.37
2018-02-15T15:28:05.192Z,15.60
2018-02-15T15:30:33.727Z,18.33
2018-02-15T15:33:02.208Z,17.37
2018-02-15T15:35:31.105Z,20.63
2018-02-15T15:37:59.606Z,17.73
2018-02-15T15:40:28.070Z,34.90
2018-02-15T15:42:56.570Z,31.40
2018-02-15T15:45:25.090Z,29.60
2018-02-15T15:47:53.598Z,19.73
2018-02-15T15:50:22.061Z,15.77
2018-02-15T15:52:50.561Z,20.67
2018-02-15T15:55:19.026Z,20.37
2018-02-15T15:57:47.563Z,21.47
2018-02-15T16:00:16.070Z,20.53
2018-02-15T16:02:44.547Z,15.20
2018-02-15T16:05:12.991Z,29.77
2018-02-15T16:07:41.493Z,24.13
2018-02-15T16:10:09.950Z,24.37
2018-02-15T16:12:38.421Z,26.60
2018-02-15T16:15:06.949Z,24.07
2018-02-15T16:17:35.422Z,19.00
2018-02-15T16:20:03.953Z,19.20
2018-02-15T16:22:32.440Z,23.97
2018-02-15T16:25:00.945Z,26.97
2018-02-15T16:27:29.456Z,23.83
2018-02-15T16:29:57.960Z,29.60
2018-02-15T16:32:26.473Z,27.77
2018-02-15T16:34:54.942Z,27.80
2018-02-15T16:37:23.442Z,23.50
2018-02-15T16:39:51.914Z,17.97
2018-02-15T16:42:20.430Z,22.90
2018-02-15T16:44:48.878Z,20.10
2018-02-15T16:47:17.348Z,21.07
2018-02-15T16:49:45.849Z,26.10
2018-02-15T16:52:14.323Z,23.27
2018-02-15T16:54:42.829Z,20.70
2018-02-15T16:57:11.318Z,21.90
2018-02-15T16:59:39.818Z,27.23
2018-02-15T17:02:08.316Z,22.93
2018-02-15T17:04:36.781Z,18.93
2018-02-15T17:07:05.299Z,35.20
2018-02-15T17:09:33.779Z,26.43
2018-02-15T17:12:02.288Z,55.37
2018-02-15T17:14:30.786Z,44.40
2018-02-15T17:16:59.256Z,37.97
2018-02-15T17:19:27.764Z,39.13
2018-02-15T17:21:56.265Z,38.60
2018-02-15T17:24:24.761Z,31.70
2018-02-15T17:26:53.270Z,33.17
2018-02-15T17:29:21.730Z,35.40
2018-02-15T17:31:50.252Z,33.67
2018-02-15T17:34:18.711Z,32.40
2018-02-15T17:36:47.169Z,32.43
2018-02-15T17:39:15.677Z,33.87
2018-02-15T17:41:44.192Z,38.30
2018-02-15T17:44:12.663Z,36.80
2018-02-15T17:46:41.158Z,39.07
2018-02-15T17:49:09.632Z,32.77
2018-02-15T17:51:38.148Z,33.20
2018-02-15T17:54:06.657Z,39.87
2018-02-15T17:56:35.170Z,29.87
2018-02-15T17:59:03.666Z,30.67
2018-02-15T18:01:32.205Z,38.23
2018-02-15T18:04:00.709Z,28.23
2018-02-15T18:06:29.214Z,31.33
2018-02-15T18:08:57.767Z,28.30
2018-02-15T18:11:26.267Z,26.10
2018-02-15T18:13:54.766Z,23.97
2018-02-15T18:16:23.272Z,25.93
2018-02-15T18:18:51.741Z,25.50
2018-02-15T18:21:20.235Z,25.83
2018-02-15T18:23:48.733Z,27.07
2018-02-15T18:26:17.257Z,26.37
2018-02-15T18:28:45.730Z,27.43
2018-02-15T18:31:14.229Z,28.20
2018-02-15T18:33:42.695Z,27.17
2018-02-15T18:36:11.197Z,28.13
2018-02-15T18:38:39.657Z,26.63
2018-02-15T18:41:08.176Z,25.33
2018-02-15T18:43:36.673Z,27.07
2018-02-15T18:46:05.173Z,26.80
2018-02-15T18:48:33.650Z,26.47
2018-02-15T18:51:02.173Z,27.87
2018-02-15T18:53:30.641Z,21.93
2018-02-15T18:55:59.149Z,26.00
2018-02-15T18:58:27.642Z,23.50
2018-02-15T19:00:56.101Z,21.87
2018-02-15T19:03:24.602Z,22.37
2018-02-15T19:05:53.075Z,24.93
2018-02-15T19:08:21.569Z,21.70
2018-02-15T19:10:50.069Z,23.60
2018-02-15T19:13:18.578Z,22.10
2018-02-15T19:15:47.077Z,24.67
2018-02-15T19:18:15.565Z,24.03
2018-02-15T19:20:44.082Z,23.43
2018-02-15T19:23:12.546Z,24.90
2018-02-15T19:25:41.046Z,22.13
2018-02-15T19:28:09.509Z,22.20
2018-02-15T19:30:38.006Z,22.87
2018-02-15T19:33:06.505Z,21.27
2018-02-15T19:35:35.020Z,22.03
2018-02-15T19:38:03.494Z,21.23
2018-02-15T19:40:31.994Z,21.63
2018-02-15T19:43:00.483Z,21.80
2018-02-15T19:45:28.986Z,24.97
2018-02-15T19:47:57.804Z,23.30
2018-02-15T19:50:26.310Z,21.20
2018-02-15T19:52:54.765Z,21.07
2018-02-15T19:55:23.283Z,21.37
2018-02-15T19:57:51.770Z,20.57
2018-02-15T20:00:20.250Z,19.50
2018-02-15T20:02:48.794Z,20.23
2018-02-15T20:05:17.286Z,20.10
2018-02-15T20:07:45.919Z,20.53
2018-02-15T20:10:14.293Z,23.13
2018-02-15T20:12:42.797Z,19.53
2018-02-15T20:15:11.258Z,20.63
2018-02-15T20:17:39.755Z,18.67
2018-02-15T20:20:13.827Z,18.80
2018-02-15T20:22:42.325Z,19.63
2018-02-15T20:25:10.789Z,25.80
2018-02-15T20:27:44.928Z,25.73
2018-02-15T20:30:13.395Z,21.93
2018-02-15T20:32:41.866Z,22.70
2018-02-15T20:35:10.369Z,23.97
2018-02-15T20:37:44.325Z,22.70
2018-02-15T20:40:18.332Z,23.13
2018-02-15T20:42:46.797Z,22.73
2018-02-15T20:45:15.301Z,29.37
2018-02-15T20:47:43.781Z,26.63
2018-02-15T20:50:17.677Z,24.10
2018-02-15T20:52:51.581Z,23.47
2018-02-15T20:55:25.649Z,23.50
2018-02-15T20:57:54.180Z,23.20
2018-02-15T21:00:22.677Z,22.07
2018-02-15T21:02:51.182Z,24.20
2018-02-15T21:05:19.699Z,24.53
2018-02-15T21:07:48.177Z,25.90
2018-02-15T21:10:16.638Z,25.10
2018-02-15T21:12:45.141Z,24.93
2018-02-15T21:15:13.688Z,25.50
2018-02-15T21:17:42.176Z,25.73
2018-02-15T21:20:10.669Z,25.30
2018-02-15T21:22:39.150Z,24.77
2018-02-15T21:25:07.650Z,26.13
2018-02-15T21:27:36.141Z,26.30
2018-02-15T21:30:04.646Z,24.37
2018-02-15T21:32:33.168Z,27.03
2018-02-15T21:35:01.669Z,25.83
2018-02-15T21:37:30.181Z,27.67
2018-02-15T21:39:58.672Z,31.53
2018-02-15T21:42:27.181Z,25.83
2018-02-15T21:44:55.653Z,25.23
2018-02-15T21:47:24.157Z,27.37
2018-02-15T21:49:52.662Z,24.33
2018-02-15T21:52:21.127Z,23.87
2018-02-15T21:54:49.642Z,25.73
2018-02-15T21:57:18.128Z,24.90
2018-02-15T21:59:46.643Z,24.70
2018-02-15T22:02:15.110Z,27.30
2018-02-15T22:04:43.635Z,27.07
2018-02-15T22:07:12.136Z,26.53
2018-02-15T22:09:40.596Z,24.67
2018-02-15T22:12:09.109Z,24.50
2018-02-15T22:14:37.574Z,27.40
2018-02-15T22:17:06.074Z,27.43
2018-02-15T22:19:34.574Z,26.47
2018-02-15T22:22:03.069Z,26.50
2018-02-15T22:24:31.541Z,26.03
2018-02-15T22:27:00.046Z,24.53
2018-02-15T22:29:28.537Z,26.90
2018-02-15T22:31:57.037Z,26.37
2018-02-15T22:34:25.505Z,24.93
2018-02-15T22:36:54.001Z,25.83
2018-02-15T22:39:22.477Z,27.60
2018-02-15T22:41:50.977Z,28.23
2018-02-15T22:44:19.478Z,29.27
2018-02-15T22:46:47.981Z,28.43
2018-02-15T22:49:16.445Z,30.33
2018-02-15T22:51:44.922Z,27.53
2018-02-15T22:54:13.421Z,27.57
2018-02-15T22:56:41.962Z,29.50
2018-02-15T22:59:10.449Z,28.63
2018-02-15T23:01:38.946Z,27.23
2018-02-15T23:04:07.405Z,29.73
2018-02-15T23:06:35.890Z,28.60
2018-02-15T23:09:04.454Z,29.57
2018-02-15T23:11:32.967Z,28.93
2018-02-15T23:14:01.438Z,26.07
2018-02-15T23:16:29.994Z,25.63
2018-02-15T23:18:58.470Z,26.63
2018-02-15T23:21:26.924Z,27.23
2018-02-15T23:23:55.422Z,25.43
2018-02-15T23:26:23.885Z,25.27
2018-02-15T23:28:52.414Z,25.90
2018-02-15T23:31:20.930Z,26.00
2018-02-15T23:33:49.421Z,26.33
2018-02-15T23:36:17.915Z,26.10
2018-02-15T23:38:46.424Z,28.37
2018-02-15T23:41:14.881Z,27.13
2018-02-15T23:43:43.383Z,30.27
2018-02-15T23:46:11.846Z,26.57
2018-02-15T23:48:40.381Z,28.23
2018-02-15T23:51:08.868Z,29.20
2018-02-15T23:53:37.378Z,26.63
2018-02-15T23:56:05.853Z,26.23
2018-02-15T23:58:34.366Z,26.50
